Time;durP1;ratioP1;P1;durP2;ratioP2;P2;SDS_P1;SDS_P2;PMS_P1;PMS_P2;Temp;Humidity;BMP_temperature;BMP_pressure;BME280_temperature;BME280_humidity;BME280_pressure;Samples;Min_cycle;Max_cycle;Signal;HPM_P1;HPM_P2
2021/07/18 00:02:05;;;;;;;4.60;4.20;;;24.60;74.40;;;;;;5011699;28;20203;-55
2021/07/18 00:04:32;;;;;;;4.68;4.20;;;24.60;74.50;;;;;;5013098;28;20195;-52
2021/07/18 00:06:58;;;;;;;3.97;3.67;;;24.60;74.40;;;;;;5012112;28;20207;-55
2021/07/18 00:09:25;;;;;;;3.78;3.47;;;24.60;74.30;;;;;;5011455;28;20214;-55
2021/07/18 00:11:51;;;;;;;4.10;3.80;;;24.60;74.30;;;;;;5010322;28;20294;-56
2021/07/18 00:14:18;;;;;;;5.10;4.35;;;24.60;74.30;;;;;;5012439;28;20213;-55
2021/07/18 00:16:44;;;;;;;4.72;4.32;;;24.60;74.30;;;;;;5010783;28;20245;-55
2021/07/18 00:19:11;;;;;;;4.53;4.22;;;24.60;74.40;;;;;;5009472;28;20219;-55
2021/07/18 00:21:38;;;;;;;4.05;3.75;;;24.60;74.40;;;;;;5011058;28;20651;-56
2021/07/18 00:24:04;;;;;;;4.50;4.10;;;24.60;74.20;;;;;;5012979;28;20209;-55
2021/07/18 00:26:31;;;;;;;3.92;3.63;;;24.60;74.30;;;;;;5011471;28;20199;-51
2021/07/18 00:28:57;;;;;;;5.18;4.78;;;24.60;74.20;;;;;;5011057;28;20277;-55
2021/07/18 00:31:24;;;;;;;4.53;4.18;;;24.60;74.20;;;;;;5011990;28;20204;-55
2021/07/18 00:33:50;;;;;;;4.45;4.05;;;24.60;74.20;;;;;;5011300;28;20581;-55
2021/07/18 00:36:17;;;;;;;4.45;4.05;;;24.60;74.20;;;;;;5012423;28;20557;-56
2021/07/18 00:38:43;;;;;;;4.38;4.00;;;24.70;74.30;;;;;;5010945;28;20231;-55
2021/07/18 00:41:10;;;;;;;4.07;3.78;;;24.60;74.10;;;;;;5011253;28;20541;-52
2021/07/18 00:43:36;;;;;;;4.40;4.00;;;24.60;74.10;;;;;;5011529;28;20230;-56
2021/07/18 00:46:02;;;;;;;4.03;3.72;;;24.60;74.10;;;;;;5011551;28;20847;-56
2021/07/18 00:48:29;;;;;;;4.43;4.03;;;24.60;74.10;;;;;;5010648;28;20223;-55
2021/07/18 00:50:55;;;;;;;4.55;4.18;;;24.60;74.10;;;;;;5011958;28;20557;-54
2021/07/18 00:53:22;;;;;;;5.18;3.70;;;24.60;74.20;;;;;;5010878;28;20290;-56
2021/07/18 00:55:48;;;;;;;4.25;3.50;;;24.60;74.10;;;;;;5011441;28;20235;-56
2021/07/18 00:58:15;;;;;;;4.15;3.75;;;24.60;74.10;;;;;;5011792;28;20232;-54
2021/07/18 01:00:41;;;;;;;3.88;3.58;;;24.60;74.20;;;;;;5010602;28;20210;-54
2021/07/18 01:03:08;;;;;;;4.10;3.70;;;24.60;74.30;;;;;;5010748;28;20199;-54
2021/07/18 01:05:34;;;;;;;4.50;4.10;;;24.60;74.10;;;;;;5011104;28;20240;-52
2021/07/18 01:08:01;;;;;;;4.18;3.88;;;24.60;74.10;;;;;;5010709;28;20227;-56
2021/07/18 01:10:27;;;;;;;4.10;3.75;;;24.60;74.00;;;;;;5011296;28;20221;-56
2021/07/18 01:12:54;;;;;;;4.30;4.00;;;24.60;74.00;;;;;;5009199;28;20237;-56
2021/07/18 01:15:20;;;;;;;3.90;3.60;;;24.60;74.00;;;;;;4998315;28;20226;-55
2021/07/18 01:17:47;;;;;;;4.20;3.90;;;24.60;74.10;;;;;;5005900;28;20223;-55
2021/07/18 01:20:13;;;;;;;4.28;3.97;;;24.60;73.90;;;;;;5009412;28;20199;-55
2021/07/18 01:22:39;;;;;;;4.32;4.03;;;24.60;73.90;;;;;;5010254;28;20338;-52
2021/07/18 01:25:06;;;;;;;4.10;3.75;;;24.60;73.90;;;;;;5010715;28;20206;-55
2021/07/18 01:27:33;;;;;;;3.85;3.55;;;24.60;73.80;;;;;;5010663;28;20323;-54
2021/07/18 01:29:59;;;;;;;4.10;3.80;;;24.60;73.80;;;;;;5010726;28;20290;-54
2021/07/18 01:32:26;;;;;;;3.92;3.63;;;24.60;73.80;;;;;;5010669;28;20203;-52
2021/07/18 01:34:52;;;;;;;3.90;3.60;;;24.60;73.90;;;;;;5010829;28;20203;-55
2021/07/18 01:37:19;;;;;;;4.40;4.00;;;24.60;73.80;;;;;;5009666;28;20266;-54
2021/07/18 01:39:46;;;;;;;4.07;3.78;;;24.60;73.70;;;;;;5010171;28;20209;-53
2021/07/18 01:42:12;;;;;;;3.90;3.60;;;24.60;73.70;;;;;;5009943;28;20643;-52
2021/07/18 01:44:39;;;;;;;4.28;3.88;;;24.60;73.70;;;;;;5010339;28;20755;-55
2021/07/18 01:47:05;;;;;;;4.05;3.75;;;24.60;73.80;;;;;;5009712;28;20219;-51
2021/07/18 01:49:31;;;;;;;3.70;3.40;;;24.60;73.70;;;;;;5009800;28;20873;-52
2021/07/18 01:51:58;;;;;;;3.72;3.42;;;24.60;73.70;;;;;;5010953;28;20655;-55
2021/07/18 01:54:24;;;;;;;3.75;3.53;;;24.60;73.70;;;;;;5010167;28;20213;-53
2021/07/18 01:56:51;;;;;;;4.03;3.72;;;24.60;73.70;;;;;;5009250;28;20716;-56
2021/07/18 01:59:18;;;;;;;3.90;3.60;;;24.60;73.60;;;;;;5009398;28;20203;-56
2021/07/18 02:01:44;;;;;;;4.00;3.70;;;24.60;73.60;;;;;;5010651;28;20286;-54
2021/07/18 02:04:11;;;;;;;3.58;3.38;;;24.60;73.70;;;;;;5009707;28;20210;-53
2021/07/18 02:06:37;;;;;;;3.70;3.40;;;24.60;73.60;;;;;;5009706;28;20207;-51
2021/07/18 02:09:04;;;;;;;3.83;3.53;;;24.60;73.50;;;;;;5009818;28;20245;-53
2021/07/18 02:11:30;;;;;;;4.07;3.78;;;24.60;73.40;;;;;;5010193;28;20205;-55
2021/07/18 02:13:57;;;;;;;4.05;3.75;;;24.60;73.60;;;;;;5009613;28;20339;-54
2021/07/18 02:16:23;;;;;;;3.80;3.50;;;24.60;73.50;;;;;;5009291;28;20227;-52
2021/07/18 02:18:49;;;;;;;4.30;3.67;;;24.60;73.40;;;;;;5010044;28;20223;-55
2021/07/18 02:21:16;;;;;;;3.83;3.53;;;24.60;73.60;;;;;;5009926;28;20290;-54
2021/07/18 02:23:42;;;;;;;4.20;3.90;;;24.60;73.50;;;;;;5008210;28;20199;-56
2021/07/18 02:26:09;;;;;;;3.97;3.67;;;24.60;73.60;;;;;;5007788;28;20282;-56
2021/07/18 02:28:35;;;;;;;4.03;3.72;;;24.60;73.50;;;;;;5000782;28;20307;-53
2021/07/18 02:31:04;;;;;;;4.00;3.70;;;24.60;73.50;;;;;;5010458;28;20207;-55
2021/07/18 02:33:30;;;;;;;4.25;3.85;;;24.60;73.50;;;;;;5009774;28;20253;-53
2021/07/18 02:35:57;;;;;;;3.83;3.53;;;24.60;73.60;;;;;;5008388;28;20319;-55
2021/07/18 02:38:24;;;;;;;4.10;3.80;;;24.60;73.50;;;;;;5009112;28;20281;-54
2021/07/18 02:40:50;;;;;;;4.05;3.75;;;24.60;73.30;;;;;;5009325;28;20286;-55
2021/07/18 02:43:17;;;;;;;3.63;3.33;;;24.60;73.30;;;;;;5008676;28;20195;-53
2021/07/18 02:45:44;;;;;;;3.72;3.42;;;24.60;73.50;;;;;;5009545;28;20295;-54
2021/07/18 02:48:10;;;;;;;3.65;3.33;;;24.60;74.30;;;;;;5009963;28;20223;-54
2021/07/18 02:50:36;;;;;;;3.50;3.20;;;24.60;73.60;;;;;;5009127;28;20203;-56
2021/07/18 02:53:03;;;;;;;3.83;3.53;;;24.60;73.70;;;;;;5007902;28;20209;-54
2021/07/18 02:55:29;;;;;;;3.78;3.35;;;24.60;73.70;;;;;;5010282;28;20313;-55
2021/07/18 02:57:56;;;;;;;4.18;3.88;;;24.60;73.70;;;;;;5009530;28;20322;-55
2021/07/18 03:00:22;;;;;;;3.45;3.15;;;24.60;73.80;;;;;;5009900;28;20278;-54
2021/07/18 03:02:49;;;;;;;3.80;3.50;;;24.60;73.80;;;;;;5009554;28;20203;-52
2021/07/18 03:05:15;;;;;;;3.72;3.33;;;24.60;73.60;;;;;;5010021;28;20195;-54
2021/07/18 03:07:42;;;;;;;3.63;3.33;;;24.60;73.60;;;;;;5008013;28;20233;-54
2021/07/18 03:10:08;;;;;;;3.75;3.45;;;24.60;73.50;;;;;;5009690;28;20203;-52
2021/07/18 03:12:35;;;;;;;3.70;3.45;;;24.60;73.50;;;;;;5009206;28;20213;-55
2021/07/18 03:15:01;;;;;;;3.70;3.40;;;24.60;73.60;;;;;;5009552;28;20210;-50
2021/07/18 03:17:28;;;;;;;3.60;3.30;;;24.60;73.50;;;;;;5012962;28;20239;-54
2021/07/18 03:19:54;;;;;;;3.78;3.45;;;24.60;73.50;;;;;;5012710;28;20226;-56
2021/07/18 03:22:20;;;;;;;3.88;3.50;;;24.60;73.50;;;;;;5011800;28;20206;-50
2021/07/18 03:24:47;;;;;;;3.83;3.53;;;24.60;73.60;;;;;;5013614;28;20297;-54
2021/07/18 03:27:13;;;;;;;3.63;3.40;;;24.60;73.40;;;;;;5013077;28;20218;-54
2021/07/18 03:29:40;;;;;;;3.63;3.05;;;24.60;73.50;;;;;;5012747;28;20192;-53
2021/07/18 03:32:06;;;;;;;3.72;3.42;;;24.60;73.40;;;;;;5012494;28;20209;-53
2021/07/18 03:34:33;;;;;;;3.80;3.50;;;24.60;73.40;;;;;;5013701;28;20206;-53
2021/07/18 03:36:59;;;;;;;3.60;3.30;;;24.60;73.50;;;;;;5012555;28;20239;-55
2021/07/18 03:39:26;;;;;;;3.67;3.38;;;24.60;73.50;;;;;;5013059;28;20209;-52
2021/07/18 03:41:52;;;;;;;3.83;3.53;;;24.60;73.40;;;;;;5012154;28;20196;-55
2021/07/18 03:44:18;;;;;;;3.85;3.55;;;24.60;73.40;;;;;;5011944;28;20209;-55
2021/07/18 03:46:45;;;;;;;3.63;3.33;;;24.60;73.40;;;;;;5011342;28;20256;-55
2021/07/18 03:49:12;;;;;;;3.92;3.53;;;24.60;73.50;;;;;;4993358;28;20226;-53
2021/07/18 03:51:38;;;;;;;3.75;3.45;;;24.60;73.40;;;;;;5009705;28;20225;-55
2021/07/18 03:54:04;;;;;;;3.50;3.20;;;24.60;73.30;;;;;;5010986;28;20217;-55
2021/07/18 03:56:31;;;;;;;3.70;3.45;;;24.60;73.40;;;;;;5013121;28;20229;-54
2021/07/18 03:58:57;;;;;;;3.33;3.13;;;24.60;73.40;;;;;;5011906;28;20207;-54
2021/07/18 04:01:24;;;;;;;3.47;3.25;;;24.60;73.40;;;;;;5011553;28;20209;-55
2021/07/18 04:03:50;;;;;;;3.90;3.47;;;24.60;73.30;;;;;;5013075;28;20207;-55
2021/07/18 04:06:17;;;;;;;3.67;3.40;;;24.60;73.40;;;;;;5012148;28;20838;-55
2021/07/18 04:08:43;;;;;;;4.05;3.75;;;24.60;73.30;;;;;;5006101;28;20222;-53
2021/07/18 04:11:09;;;;;;;3.55;3.25;;;24.60;73.40;;;;;;4999640;28;20206;-54
2021/07/18 04:13:36;;;;;;;3.47;3.17;;;24.60;73.40;;;;;;5013001;28;20203;-53
2021/07/18 04:16:03;;;;;;;3.58;3.28;;;24.60;73.40;;;;;;5012087;28;20678;-55
2021/07/18 04:18:29;;;;;;;3.47;3.25;;;24.60;73.30;;;;;;5002928;28;20216;-54
2021/07/18 04:20:56;;;;;;;3.22;3.03;;;24.60;73.40;;;;;;5004980;28;20221;-55
2021/07/18 04:23:22;;;;;;;3.55;3.25;;;24.60;73.40;;;;;;5011317;28;20196;-56
2021/07/18 04:25:48;;;;;;;4.32;3.90;;;24.60;73.40;;;;;;5010425;28;20210;-55
2021/07/18 04:28:15;;;;;;;3.45;3.15;;;24.60;73.40;;;;;;5011431;28;20249;-52
2021/07/18 04:30:41;;;;;;;3.28;3.08;;;24.60;73.40;;;;;;5010881;28;20204;-55
2021/07/18 04:33:08;;;;;;;3.63;3.33;;;24.60;73.40;;;;;;5011395;28;20210;-54
2021/07/18 04:35:34;;;;;;;3.40;3.20;;;24.60;73.50;;;;;;5011508;28;20200;-54
2021/07/18 04:38:03;;;;;;;3.75;3.45;;;24.60;73.50;;;;;;5012297;28;20245;-57
2021/07/18 04:40:29;;;;;;;3.40;3.10;;;24.60;73.50;;;;;;5011004;28;20195;-55
2021/07/18 04:42:55;;;;;;;3.33;3.03;;;24.60;73.50;;;;;;5011673;28;20233;-56
2021/07/18 04:45:22;;;;;;;3.47;3.25;;;24.60;73.40;;;;;;5010401;28;20211;-55
2021/07/18 04:47:48;;;;;;;3.20;3.00;;;24.60;73.40;;;;;;5012620;28;20227;-55
2021/07/18 04:50:15;;;;;;;3.30;3.03;;;24.60;73.60;;;;;;5010863;28;20275;-55
2021/07/18 04:52:41;;;;;;;3.50;3.20;;;24.60;73.50;;;;;;5010115;28;20294;-54
2021/07/18 04:55:08;;;;;;;3.38;3.10;;;24.60;73.30;;;;;;5010855;28;20199;-55
2021/07/18 04:57:34;;;;;;;3.53;3.22;;;24.60;73.30;;;;;;5011253;28;20241;-57
2021/07/18 05:00:01;;;;;;;3.67;3.38;;;24.60;73.40;;;;;;5010240;28;20271;-55
2021/07/18 05:02:27;;;;;;;3.25;2.85;;;24.60;73.40;;;;;;4995369;28;20206;-50
2021/07/18 05:04:54;;;;;;;3.10;2.80;;;24.60;73.40;;;;;;5011544;28;20205;-54
2021/07/18 05:07:20;;;;;;;3.10;2.90;;;24.60;73.40;;;;;;5010729;28;20223;-55
2021/07/18 05:09:47;;;;;;;3.47;3.17;;;24.60;73.30;;;;;;5011108;28;20195;-55
2021/07/18 05:12:13;;;;;;;3.30;3.10;;;24.60;73.30;;;;;;5011053;28;20207;-55
2021/07/18 05:14:41;;;;;;;3.60;3.30;;;24.60;73.30;;;;;;4996312;28;20200;-55
2021/07/18 05:17:08;;;;;;;3.17;2.97;;;24.60;73.30;;;;;;5010577;28;20321;-56
2021/07/18 05:19:34;;;;;;;3.20;3.00;;;24.60;73.30;;;;;;5010538;28;20305;-56
2021/07/18 05:22:01;;;;;;;3.05;2.83;;;24.60;73.30;;;;;;5011515;28;20209;-51
2021/07/18 05:24:28;;;;;;;3.33;3.03;;;24.60;73.30;;;;;;5010599;28;20206;-55
2021/07/18 05:26:55;;;;;;;3.45;3.10;;;24.60;73.30;;;;;;5011021;28;20219;-56
2021/07/18 05:29:21;;;;;;;3.35;3.05;;;24.60;73.30;;;;;;5009471;28;20199;-54
2021/07/18 05:31:47;;;;;;;2.90;2.70;;;24.60;73.30;;;;;;5010653;28;20286;-53
2021/07/18 05:34:14;;;;;;;3.20;3.00;;;24.60;73.30;;;;;;5010744;28;20203;-55
2021/07/18 05:36:40;;;;;;;3.60;3.33;;;24.60;73.30;;;;;;5011419;28;20221;-53
2021/07/18 05:39:07;;;;;;;3.05;2.78;;;24.60;73.30;;;;;;5009194;28;20203;-54
2021/07/18 05:41:33;;;;;;;3.30;3.00;;;24.60;73.40;;;;;;5009957;28;20195;-54
2021/07/18 05:44:00;;;;;;;3.40;3.10;;;24.60;73.30;;;;;;5003988;28;20203;-57
2021/07/18 05:46:26;;;;;;;3.00;2.80;;;24.60;73.30;;;;;;5006864;28;20242;-55
2021/07/18 05:48:53;;;;;;;3.17;2.97;;;24.60;73.30;;;;;;5010799;28;20205;-54
2021/07/18 05:51:19;;;;;;;3.08;2.88;;;24.60;73.30;;;;;;5008656;28;20199;-56
2021/07/18 05:53:46;;;;;;;3.22;2.53;;;24.60;73.30;;;;;;5009453;28;20207;-53
2021/07/18 05:56:13;;;;;;;3.05;2.85;;;24.60;73.40;;;;;;5009587;28;20222;-55
2021/07/18 05:58:39;;;;;;;3.10;2.75;;;24.60;73.20;;;;;;5010445;28;20234;-55
2021/07/18 06:01:05;;;;;;;3.20;3.00;;;24.60;73.20;;;;;;5009849;28;20282;-55
2021/07/18 06:03:33;;;;;;;2.92;2.72;;;24.60;72.90;;;;;;5009449;28;20203;-55
2021/07/18 06:05:59;;;;;;;2.83;2.63;;;24.60;73.20;;;;;;5010991;28;20222;-55
2021/07/18 06:08:25;;;;;;;3.17;2.97;;;24.60;73.20;;;;;;5009376;28;20195;-56
2021/07/18 06:10:52;;;;;;;2.92;2.72;;;24.60;73.30;;;;;;5010504;28;20200;-56
2021/07/18 06:13:18;;;;;;;3.17;2.97;;;24.60;73.30;;;;;;5011205;28;20201;-56
2021/07/18 06:15:45;;;;;;;3.22;2.92;;;24.60;73.10;;;;;;5009705;28;20207;-56
2021/07/18 06:18:11;;;;;;;3.00;2.80;;;24.60;73.20;;;;;;5010668;28;20226;-56
2021/07/18 06:20:38;;;;;;;2.60;2.40;;;24.60;73.20;;;;;;5009658;28;20209;-56
2021/07/18 06:23:05;;;;;;;3.05;2.85;;;24.60;73.20;;;;;;5010526;28;20207;-55
2021/07/18 06:25:31;;;;;;;2.80;2.60;;;24.60;73.10;;;;;;5010344;28;20203;-56
2021/07/18 06:27:57;;;;;;;3.05;2.85;;;24.60;73.20;;;;;;5010334;28;20361;-56
2021/07/18 06:30:24;;;;;;;3.10;2.90;;;24.60;73.20;;;;;;5008702;28;20221;-55
2021/07/18 06:32:50;;;;;;;3.00;2.80;;;24.60;73.20;;;;;;5009597;28;20206;-55
2021/07/18 06:35:17;;;;;;;3.00;2.80;;;24.60;73.10;;;;;;5009757;28;20630;-56
2021/07/18 06:37:43;;;;;;;2.78;2.58;;;24.60;73.20;;;;;;5009816;28;20696;-56
2021/07/18 06:40:10;;;;;;;3.03;2.83;;;24.60;73.20;;;;;;5009068;28;20608;-56
2021/07/18 06:42:36;;;;;;;2.83;2.63;;;24.60;73.10;;;;;;5010016;28;20205;-55
2021/07/18 06:45:02;;;;;;;2.80;2.60;;;24.60;73.20;;;;;;5008226;28;20647;-55
2021/07/18 06:47:29;;;;;;;2.90;2.70;;;24.60;73.20;;;;;;5009070;28;20219;-57
2021/07/18 06:49:57;;;;;;;3.28;3.08;;;24.60;73.10;;;;;;5012582;28;20576;-55
2021/07/18 06:52:23;;;;;;;2.92;2.72;;;24.60;73.10;;;;;;5012517;28;20208;-56
2021/07/18 06:54:50;;;;;;;3.05;2.85;;;24.60;73.10;;;;;;5013441;28;20572;-55
2021/07/18 06:57:16;;;;;;;2.72;2.53;;;24.60;73.10;;;;;;5012716;28;20623;-54
2021/07/18 06:59:42;;;;;;;2.83;2.58;;;24.60;73.10;;;;;;5013783;28;20573;-56
2021/07/18 07:02:09;;;;;;;3.08;2.83;;;24.60;73.10;;;;;;5011896;28;20286;-55
2021/07/18 07:04:35;;;;;;;2.83;2.63;;;24.60;73.10;;;;;;5013217;28;20225;-55
2021/07/18 07:07:02;;;;;;;3.05;2.85;;;24.60;73.10;;;;;;5009894;28;20229;-55
2021/07/18 07:09:28;;;;;;;3.08;2.88;;;24.60;73.10;;;;;;5001886;28;20203;-55
2021/07/18 07:11:55;;;;;;;3.00;2.70;;;24.60;73.00;;;;;;5007605;28;20207;-55
2021/07/18 07:14:21;;;;;;;3.00;2.80;;;24.60;73.30;;;;;;5006704;28;20198;-56
2021/07/18 07:16:48;;;;;;;2.80;2.60;;;24.60;72.80;;;;;;5011433;28;20306;-56
2021/07/18 07:19:14;;;;;;;4.50;2.70;;;24.60;72.90;;;;;;5005189;28;20239;-54
2021/07/18 07:21:41;;;;;;;3.42;3.05;;;24.60;73.30;;;;;;5012104;28;20209;-58
2021/07/18 07:24:07;;;;;;;2.88;2.67;;;24.60;73.90;;;;;;5006200;28;20291;-58
2021/07/18 07:26:34;;;;;;;4.32;3.05;;;24.60;73.30;;;;;;5009734;28;20771;-57
2021/07/18 07:29:00;;;;;;;2.72;2.53;;;24.60;73.60;;;;;;5015461;28;20658;-51
2021/07/18 07:31:27;;;;;;;2.70;2.50;;;24.60;73.40;;;;;;5013019;28;20734;-56
2021/07/18 07:33:54;;;;;;;3.00;2.70;;;24.70;72.90;;;;;;5006233;28;20270;-60
2021/07/18 07:36:20;;;;;;;2.90;2.70;;;24.70;72.80;;;;;;5011565;28;20245;-59
2021/07/18 07:38:47;;;;;;;3.13;2.78;;;24.70;73.70;;;;;;5012390;28;20235;-55
2021/07/18 07:41:13;;;;;;;2.97;2.67;;;24.70;73.30;;;;;;5009958;28;20199;-50
2021/07/18 07:43:40;;;;;;;3.50;2.90;;;24.70;72.90;;;;;;5011860;28;20207;-50
2021/07/18 07:46:07;;;;;;;6.25;3.30;;;24.70;73.90;;;;;;5012041;28;20227;-57
2021/07/18 07:48:33;;;;;;;5.88;3.13;;;24.70;73.90;;;;;;5011555;28;20199;-60
2021/07/18 07:51:00;;;;;;;6.63;3.25;;;24.70;75.20;;;;;;5012601;28;20207;-56
2021/07/18 07:53:26;;;;;;;5.40;3.40;;;24.70;75.90;;;;;;5005595;28;20199;-55
2021/07/18 07:55:53;;;;;;;5.93;3.55;;;24.70;76.00;;;;;;5007087;28;20227;-56
2021/07/18 07:58:19;;;;;;;6.68;3.33;;;24.70;76.50;;;;;;5012199;28;20239;-56
2021/07/18 08:00:45;;;;;;;7.28;4.15;;;24.70;77.00;;;;;;5012521;28;20222;-57
2021/07/18 08:03:12;;;;;;;6.78;4.15;;;24.60;76.80;;;;;;5011629;28;20213;-50
2021/07/18 08:05:38;;;;;;;6.15;3.95;;;24.00;75.50;;;;;;5012595;28;20229;-55
2021/07/18 08:08:05;;;;;;;4.78;3.28;;;22.50;75.80;;;;;;5011998;28;20313;-55
2021/07/18 08:10:32;;;;;;;4.60;3.40;;;21.60;78.20;;;;;;5012685;28;20242;-55
2021/07/18 08:12:58;;;;;;;5.88;3.10;;;22.30;78.60;;;;;;5010955;28;20203;-55
2021/07/18 08:15:24;;;;;;;5.07;3.40;;;22.90;77.50;;;;;;5011971;28;20329;-55
2021/07/18 08:17:51;;;;;;;3.38;3.08;;;23.20;76.40;;;;;;5012792;28;20231;-55
2021/07/18 08:20:17;;;;;;;4.75;3.88;;;23.50;76.30;;;;;;5011902;28;20279;-55
2021/07/18 08:22:45;;;;;;;4.95;3.30;;;23.80;76.30;;;;;;5013118;28;20195;-56
2021/07/18 08:25:11;;;;;;;3.92;3.50;;;23.90;76.50;;;;;;5011387;28;20207;-54
2021/07/18 08:27:38;;;;;;;5.78;3.70;;;24.00;76.40;;;;;;5011445;28;20741;-55
2021/07/18 08:30:04;;;;;;;3.83;3.40;;;24.10;76.50;;;;;;5007519;28;20207;-54
2021/07/18 08:32:30;;;;;;;3.75;3.03;;;24.10;76.40;;;;;;4995055;28;20229;-53
2021/07/18 08:34:57;;;;;;;4.35;2.80;;;24.20;76.50;;;;;;5007305;28;20207;-56
2021/07/18 08:37:23;;;;;;;3.95;2.95;;;24.20;76.40;;;;;;5011146;28;20199;-53
2021/07/18 08:39:51;;;;;;;3.38;2.80;;;24.20;76.50;;;;;;5010504;28;20207;-54
2021/07/18 08:42:17;;;;;;;4.88;3.15;;;24.30;76.40;;;;;;5012109;28;20203;-54
2021/07/18 08:44:44;;;;;;;3.50;2.88;;;24.30;76.60;;;;;;5008557;28;20213;-55
2021/07/18 08:47:10;;;;;;;5.68;3.22;;;24.30;77.20;;;;;;5000527;28;20227;-49
2021/07/18 08:49:37;;;;;;;5.43;3.33;;;24.30;76.20;;;;;;4992480;28;20215;-57
2021/07/18 08:52:03;;;;;;;4.13;3.25;;;24.30;76.60;;;;;;4993699;28;20381;-56
2021/07/18 08:54:29;;;;;;;24.10;4.95;;;24.40;75.30;;;;;;4993574;28;20560;-56
2021/07/18 08:56:59;;;;;;;7.03;3.10;;;24.40;76.10;;;;;;4992667;28;20584;-59
2021/07/18 08:59:26;;;;;;;5.72;3.03;;;24.40;75.50;;;;;;4992975;28;20654;-56
2021/07/18 09:01:52;;;;;;;5.32;3.03;;;24.40;75.20;;;;;;4992438;28;20229;-53
2021/07/18 09:04:19;;;;;;;3.33;3.03;;;24.40;75.30;;;;;;4992401;28;20219;-53
2021/07/18 09:06:46;;;;;;;5.43;3.20;;;24.50;75.20;;;;;;4993416;28;20227;-56
2021/07/18 09:09:12;;;;;;;3.13;2.83;;;24.50;75.40;;;;;;4994394;28;20202;-63
2021/07/18 09:11:39;;;;;;;4.05;3.30;;;24.50;75.20;;;;;;4992047;28;20213;-51
2021/07/18 09:14:05;;;;;;;2.97;2.67;;;24.50;75.40;;;;;;4991631;28;20207;-55
2021/07/18 09:16:31;;;;;;;3.25;2.88;;;24.50;75.10;;;;;;4992445;28;20223;-52
2021/07/18 09:18:58;;;;;;;5.60;3.17;;;24.50;76.10;;;;;;5008417;28;20245;-54
2021/07/18 09:21:24;;;;;;;3.35;3.03;;;24.50;75.50;;;;;;5010066;28;20208;-54
2021/07/18 09:23:51;;;;;;;3.60;3.10;;;24.60;75.40;;;;;;5010344;28;20207;-55
2021/07/18 09:26:17;;;;;;;3.42;2.80;;;24.60;75.50;;;;;;5009928;28;20313;-55
2021/07/18 09:28:44;;;;;;;4.13;2.75;;;24.60;75.50;;;;;;5010540;28;20711;-53
2021/07/18 09:31:10;;;;;;;5.38;3.50;;;24.60;75.40;;;;;;5010101;28;20203;-52
2021/07/18 09:33:36;;;;;;;3.83;3.10;;;24.60;75.50;;;;;;5008815;28;20202;-50
2021/07/18 09:36:03;;;;;;;5.10;2.92;;;24.60;75.40;;;;;;5004782;28;20223;-55
2021/07/18 09:38:29;;;;;;;4.82;3.42;;;24.60;75.20;;;;;;5009326;28;20223;-58
2021/07/18 09:40:56;;;;;;;4.30;3.90;;;24.60;75.70;;;;;;5007403;28;20214;-56
2021/07/18 09:43:22;;;;;;;4.40;3.38;;;24.60;76.60;;;;;;5012280;28;20214;-48
2021/07/18 09:45:49;;;;;;;12.10;3.65;;;24.60;76.40;;;;;;5007778;28;20616;-53
2021/07/18 09:48:15;;;;;;;3.45;3.10;;;24.60;75.50;;;;;;5009192;28;20631;-52
2021/07/18 09:50:42;;;;;;;4.63;3.42;;;24.60;75.50;;;;;;5008687;28;20203;-48
2021/07/18 09:53:08;;;;;;;4.20;3.13;;;24.60;75.80;;;;;;5008912;28;20684;-45
2021/07/18 09:55:35;;;;;;;4.20;3.60;;;24.60;75.80;;;;;;5007735;28;20726;-52
2021/07/18 09:58:01;;;;;;;4.22;3.55;;;24.60;75.70;;;;;;5009498;28;20725;-50
2021/07/18 10:00:28;;;;;;;4.25;3.38;;;24.60;75.40;;;;;;5009443;28;20659;-51
2021/07/18 10:02:54;;;;;;;4.90;4.20;;;24.60;75.60;;;;;;5007913;28;20223;-55
2021/07/18 10:05:20;;;;;;;4.22;3.35;;;24.60;75.80;;;;;;5009361;28;20254;-59
2021/07/18 10:07:47;;;;;;;3.85;3.50;;;24.60;75.60;;;;;;5007378;28;20211;-52
2021/07/18 10:10:13;;;;;;;4.93;3.63;;;24.60;75.60;;;;;;5008936;28;20225;-54
2021/07/18 10:12:40;;;;;;;3.88;3.42;;;24.60;75.50;;;;;;5010523;28;20233;-50
2021/07/18 10:15:07;;;;;;;4.22;3.80;;;24.60;75.40;;;;;;5006446;28;20229;-50
2021/07/18 10:17:33;;;;;;;4.47;3.08;;;24.60;75.40;;;;;;5009695;28;20210;-53
2021/07/18 10:20:00;;;;;;;4.20;3.80;;;24.60;75.40;;;;;;5004364;28;20801;-53
2021/07/18 10:22:26;;;;;;;6.93;4.63;;;24.60;75.50;;;;;;5008201;28;20199;-52
2021/07/18 10:24:52;;;;;;;4.70;3.90;;;24.60;75.80;;;;;;5011125;28;20227;-51
2021/07/18 10:27:19;;;;;;;4.50;3.80;;;24.60;75.30;;;;;;5015864;28;20206;-50
2021/07/18 10:29:45;;;;;;;12.77;4.53;;;24.60;75.20;;;;;;5012103;28;20205;-55
2021/07/18 10:32:12;;;;;;;8.38;4.47;;;24.60;75.70;;;;;;5015567;28;20199;-55
2021/07/18 10:34:38;;;;;;;7.38;4.38;;;24.60;75.80;;;;;;5013517;28;20251;-52
2021/07/18 10:37:05;;;;;;;6.53;4.30;;;24.70;75.60;;;;;;5014768;28;20301;-57
2021/07/18 10:39:31;;;;;;;7.93;4.07;;;24.70;76.70;;;;;;5012295;28;20230;-61
2021/07/18 10:41:58;;;;;;;6.18;3.90;;;24.70;75.80;;;;;;5018729;28;20203;-59
2021/07/18 10:44:24;;;;;;;11.43;4.47;;;24.70;75.60;;;;;;5016975;28;20647;-59
2021/07/18 10:46:50;;;;;;;6.32;4.03;;;24.70;76.00;;;;;;5013457;28;20236;-56
2021/07/18 10:49:17;;;;;;;5.15;3.80;;;24.70;75.90;;;;;;5013491;28;20214;-52
2021/07/18 10:51:43;;;;;;;10.88;3.50;;;24.70;75.60;;;;;;5015703;28;20203;-51
2021/07/18 10:54:10;;;;;;;9.77;4.38;;;24.70;75.00;;;;;;5014038;28;20750;-50
2021/07/18 10:56:37;;;;;;;8.30;4.47;;;24.70;75.30;;;;;;5013434;28;20219;-56
2021/07/18 10:59:03;;;;;;;7.22;4.07;;;24.70;75.40;;;;;;5014896;28;20230;-57
2021/07/18 11:01:28;;;;;;;7.13;4.00;;;24.70;75.90;;;;;;5015893;28;20209;-57
2021/07/18 11:03:55;;;;;;;8.45;4.70;;;24.70;75.60;;;;;;5015383;28;20464;-55
2021/07/18 11:06:21;;;;;;;6.45;3.67;;;24.70;75.90;;;;;;5013843;28;20229;-54
2021/07/18 11:08:48;;;;;;;9.10;4.28;;;24.70;75.40;;;;;;5014284;28;20215;-53
2021/07/18 11:11:15;;;;;;;6.50;3.85;;;24.70;75.80;;;;;;5015274;28;20203;-55
2021/07/18 11:13:41;;;;;;;9.98;6.60;;;24.70;75.30;;;;;;5014956;28;20203;-58
2021/07/18 11:16:08;;;;;;;10.32;5.72;;;24.70;76.70;;;;;;5008991;28;20226;-59
2021/07/18 11:18:35;;;;;;;9.15;7.40;;;24.70;76.90;;;;;;5013253;28;20229;-53
2021/07/18 11:21:01;;;;;;;10.73;8.75;;;24.60;77.80;;;;;;5013536;28;20203;-59
2021/07/18 11:23:28;;;;;;;9.93;7.10;;;24.60;77.70;;;;;;5011559;28;20203;-60
2021/07/18 11:25:58;;;;;;;11.23;8.50;;;24.60;77.50;;;;;;5016071;28;20290;-59
2021/07/18 11:28:25;;;;;;;10.95;7.95;;;24.50;77.60;;;;;;5008731;28;20210;-60
2021/07/18 11:30:51;;;;;;;11.10;7.80;;;24.50;77.80;;;;;;5005021;28;20204;-47
2021/07/18 11:33:18;;;;;;;7.43;6.70;;;24.60;77.60;;;;;;5007632;28;20361;-50
2021/07/18 11:35:44;;;;;;;9.05;7.97;;;24.60;76.80;;;;;;5011887;28;20219;-59
2021/07/18 11:38:11;;;;;;;13.80;11.23;;;24.70;77.70;;;;;;5012014;28;20200;-59
2021/07/18 11:40:37;;;;;;;12.93;10.43;;;24.60;76.90;;;;;;5009601;28;20207;-59
2021/07/18 11:43:04;;;;;;;16.00;12.38;;;24.60;77.10;;;;;;5011045;28;20289;-60
2021/07/18 11:45:30;;;;;;;14.88;12.48;;;24.50;77.30;;;;;;5011672;28;20249;-60
2021/07/18 11:47:57;;;;;;;13.05;11.45;;;24.50;77.60;;;;;;5012663;28;20203;-60
2021/07/18 11:50:23;;;;;;;15.30;11.50;;;24.60;77.70;;;;;;5010571;28;20207;-60
2021/07/18 11:52:50;;;;;;;15.70;12.13;;;24.60;77.20;;;;;;5007796;28;20291;-61
2021/07/18 11:55:16;;;;;;;13.63;11.38;;;24.60;77.10;;;;;;5012765;28;20223;-60
2021/07/18 11:57:43;;;;;;;14.02;11.98;;;24.50;76.60;;;;;;5011455;28;20238;-60
2021/07/18 12:00:09;;;;;;;13.60;11.60;;;23.90;75.90;;;;;;4996054;28;20231;-61
2021/07/18 12:02:38;;;;;;;13.13;11.60;;;23.90;76.20;;;;;;5009053;28;20207;-61
2021/07/18 12:05:05;;;;;;;13.73;12.35;;;24.00;76.00;;;;;;5008296;28;20225;-61
2021/07/18 12:07:31;;;;;;;13.18;11.73;;;24.00;75.70;;;;;;5011329;28;20658;-61
2021/07/18 12:09:58;;;;;;;13.38;12.07;;;24.00;75.70;;;;;;5010832;28;20203;-61
2021/07/18 12:12:24;;;;;;;12.85;11.52;;;24.00;75.40;;;;;;5009438;28;20207;-61
2021/07/18 12:14:50;;;;;;;13.23;11.93;;;24.00;75.30;;;;;;5006385;28;20230;-61
2021/07/18 12:17:17;;;;;;;13.77;12.30;;;24.10;75.30;;;;;;5008086;28;20286;-60
2021/07/18 12:19:43;;;;;;;12.70;11.43;;;24.20;75.30;;;;;;5009703;28;20235;-61
2021/07/18 12:22:10;;;;;;;11.35;10.25;;;24.30;75.60;;;;;;5011761;28;20199;-59
2021/07/18 12:24:38;;;;;;;11.75;10.55;;;24.30;75.70;;;;;;5025264;28;20222;-61
2021/07/18 12:27:04;;;;;;;15.18;11.68;;;24.30;75.60;;;;;;5027136;28;20213;-61
2021/07/18 12:29:30;;;;;;;14.95;12.63;;;24.30;75.60;;;;;;5011248;28;20314;-61
2021/07/18 12:31:57;;;;;;;13.30;11.90;;;24.30;75.70;;;;;;5008073;28;20202;-61
2021/07/18 12:34:23;;;;;;;12.30;11.05;;;24.20;75.40;;;;;;5008109;28;20233;-62
2021/07/18 12:36:50;;;;;;;12.45;11.15;;;24.10;75.40;;;;;;4998437;28;20200;-63
2021/07/18 12:39:16;;;;;;;12.18;10.95;;;24.20;75.40;;;;;;5007047;28;20246;-63
2021/07/18 12:41:43;;;;;;;13.13;10.90;;;24.20;75.20;;;;;;5015981;28;20203;-62